Time;durP1;ratioP1;P1;durP2;ratioP2;P2;SDS_P1;SDS_P2;PMS_P1;PMS_P2;Temp;Humidity;BMP_temperature;BMP_pressure;BME280_temperature;BME280_humidity;BME280_pressure;Samples;Min_cycle;Max_cycle;Signal;HPM_P1;HPM_P2
2022/12/28 00:01:20;;;;;;;5.47;4.77;;;2.60;99.90;;;;;;4993205;28;20217;-49
2022/12/28 00:03:48;;;;;;;6.07;4.63;;;2.50;99.90;;;;;;4994974;28;20225;-49
2022/12/28 00:06:17;;;;;;;4.10;3.80;;;2.50;99.90;;;;;;4994087;28;20209;-49
2022/12/28 00:08:44;;;;;;;5.83;5.17;;;2.50;99.90;;;;;;4990387;28;20236;-50
2022/12/28 00:11:14;;;;;;;4.00;3.10;;;2.50;99.90;;;;;;4987013;28;20197;-49
2022/12/28 00:13:42;;;;;;;3.30;3.10;;;2.50;99.90;;;;;;4993028;28;20220;-50
2022/12/28 00:16:13;;;;;;;6.30;3.07;;;2.50;99.90;;;;;;4987530;28;20852;-49
2022/12/28 00:18:40;;;;;;;2.03;1.57;;;2.70;99.90;;;;;;4991403;28;20210;-49
2022/12/28 00:21:07;;;;;;;2.10;1.90;;;2.80;99.90;;;;;;4991806;28;20272;-49
2022/12/28 00:23:34;;;;;;;1.93;1.83;;;2.90;99.90;;;;;;4993736;28;20217;-49
2022/12/28 00:26:08;;;;;;;2.47;2.30;;;3.00;99.90;;;;;;4994239;28;20647;-50
2022/12/28 00:28:36;;;;;;;8.30;4.20;;;3.00;99.90;;;;;;4993688;28;20212;-49
2022/12/28 00:31:05;;;;;;;13.60;6.57;;;3.00;99.90;;;;;;4992491;28;20776;-50
2022/12/28 00:33:32;;;;;;;21.47;11.10;;;2.90;99.90;;;;;;5036710;23;20243;-48
2022/12/28 00:36:01;;;;;;;45.63;23.63;;;2.80;99.90;;;;;;5038638;28;20207;-50
2022/12/28 00:38:30;;;;;;;42.23;19.20;;;2.70;99.90;;;;;;5032979;28;20266;-49
2022/12/28 00:40:57;;;;;;;42.37;19.57;;;2.60;99.90;;;;;;5029332;28;20683;-49
2022/12/28 00:43:24;;;;;;;30.90;15.50;;;2.50;99.90;;;;;;5033389;28;20282;-49
2022/12/28 00:45:51;;;;;;;37.70;19.57;;;2.50;99.90;;;;;;5033592;28;20209;-48
2022/12/28 00:48:20;;;;;;;29.77;17.00;;;2.40;99.90;;;;;;5032868;28;20212;-48
2022/12/28 00:50:47;;;;;;;23.30;14.27;;;2.40;99.90;;;;;;5029045;28;20205;-47
2022/12/28 00:53:14;;;;;;;18.33;10.83;;;2.40;99.90;;;;;;5033300;28;20228;-50
2022/12/28 00:55:41;;;;;;;16.60;9.90;;;2.40;99.90;;;;;;5033458;28;20756;-51
2022/12/28 00:58:08;;;;;;;16.40;9.10;;;2.30;99.90;;;;;;5033261;28;20222;-49
2022/12/28 01:00:36;;;;;;;31.50;17.27;;;2.40;99.90;;;;;;5030163;28;20200;-50
2022/12/28 01:03:04;;;;;;;15.93;8.87;;;2.30;99.90;;;;;;5032960;28;20270;-49
2022/12/28 01:05:32;;;;;;;16.87;8.13;;;2.30;99.90;;;;;;5022392;28;20205;-47
2022/12/28 01:07:59;;;;;;;4.13;3.80;;;2.40;99.90;;;;;;5032751;28;20201;-50
2022/12/28 01:10:26;;;;;;;5.03;3.50;;;2.40;99.90;;;;;;5031066;28;20230;-47
2022/12/28 01:12:54;;;;;;;1.80;1.53;;;2.50;99.90;;;;;;5032523;28;20220;-49
2022/12/28 01:15:21;;;;;;;3.57;1.53;;;2.70;99.90;;;;;;5033090;28;20236;-50
2022/12/28 01:17:48;;;;;;;2.00;1.80;;;2.80;99.90;;;;;;5032781;28;20770;-47
2022/12/28 01:20:15;;;;;;;1.23;1.23;;;3.00;99.90;;;;;;5031948;28;20204;-47
2022/12/28 01:22:43;;;;;;;2.50;2.30;;;3.10;99.90;;;;;;5023871;28;20201;-49
2022/12/28 01:25:12;;;;;;;1.57;1.47;;;3.20;99.90;;;;;;5032656;28;20207;-51
2022/12/28 01:27:38;;;;;;;3.53;1.80;;;3.20;99.90;;;;;;5032832;28;20200;-48
2022/12/28 01:30:06;;;;;;;2.40;1.70;;;3.40;99.90;;;;;;5032685;28;20200;-51
2022/12/28 01:32:33;;;;;;;1.80;1.70;;;3.40;99.90;;;;;;5029273;28;20253;-47
2022/12/28 01:35:00;;;;;;;1.60;1.50;;;3.40;99.90;;;;;;5012906;28;20627;-49
2022/12/28 01:37:27;;;;;;;1.93;1.60;;;3.50;99.90;;;;;;5011033;28;20224;-50
2022/12/28 01:39:56;;;;;;;2.43;1.73;;;3.50;99.90;;;;;;5021191;28;20251;-48
2022/12/28 01:42:23;;;;;;;1.53;1.43;;;3.60;99.90;;;;;;5026816;28;20667;-48
2022/12/28 01:44:51;;;;;;;1.47;1.20;;;3.60;99.90;;;;;;5012333;28;20233;-47
2022/12/28 01:47:22;;;;;;;1.93;1.50;;;3.70;99.90;;;;;;5012665;28;20267;-47
2022/12/28 01:49:54;;;;;;;3.80;1.77;;;3.70;99.90;;;;;;5012750;28;20205;-49
2022/12/28 01:52:26;;;;;;;2.03;1.93;;;3.80;99.90;;;;;;5012645;28;20205;-47
2022/12/28 01:55:00;;;;;;;1.93;1.37;;;3.80;99.90;;;;;;5005226;28;20628;-47
2022/12/28 01:57:29;;;;;;;1.33;1.00;;;3.90;99.90;;;;;;5011828;28;20582;-48
2022/12/28 02:00:01;;;;;;;1.30;1.30;;;3.80;99.90;;;;;;5023868;28;20208;-50
2022/12/28 02:02:29;;;;;;;2.20;1.70;;;3.80;99.90;;;;;;5031585;28;20209;-47
2022/12/28 02:04:58;;;;;;;2.30;1.40;;;3.70;99.90;;;;;;5032355;28;20274;-48
2022/12/28 02:07:36;;;;;;;1.53;1.43;;;3.70;99.90;;;;;;5032255;28;20303;-47
2022/12/28 02:10:06;;;;;;;1.83;1.73;;;3.60;99.90;;;;;;5014494;28;20285;-47
2022/12/28 02:12:34;;;;;;;1.33;1.30;;;3.50;99.90;;;;;;5023093;28;20626;-48
2022/12/28 02:15:01;;;;;;;2.47;2.27;;;3.40;99.90;;;;;;5024566;28;20673;-47
2022/12/28 02:17:28;;;;;;;1.87;1.77;;;3.30;99.90;;;;;;5032058;28;20274;-47
2022/12/28 02:19:56;;;;;;;2.03;1.93;;;3.30;99.90;;;;;;5032284;28;20283;-48
2022/12/28 02:22:47;;;;;;;1.93;1.83;;;3.20;99.90;;;;;;5019626;28;20620;-47
2022/12/28 02:25:53;;;;;;;1.93;1.83;;;3.20;99.90;;;;;;4992396;28;20728;-47
2022/12/28 02:28:50;;;;;;;1.87;1.77;;;3.10;99.90;;;;;;4967272;28;20252;-48
2022/12/28 02:31:28;;;;;;;2.40;2.20;;;3.10;99.90;;;;;;4981431;28;20251;-50
2022/12/28 02:34:05;;;;;;;2.17;1.80;;;3.10;99.90;;;;;;5012231;28;20227;-47
2022/12/28 02:36:38;;;;;;;2.47;1.63;;;3.20;99.90;;;;;;5023708;28;20839;-49
2022/12/28 02:39:10;;;;;;;1.97;1.73;;;3.20;99.90;;;;;;5031955;28;20200;-50
2022/12/28 02:41:40;;;;;;;2.23;2.03;;;3.20;99.90;;;;;;5014258;28;20292;-50
2022/12/28 02:44:07;;;;;;;2.27;1.93;;;3.20;99.90;;;;;;5017362;28;20774;-49
2022/12/28 02:53:34;;;;;;;0.93;0.93;;;3.20;99.90;;;;;;4992813;28;20221;-49
2022/12/28 02:56:14;;;;;;;0.80;0.80;;;3.30;99.90;;;;;;5000382;28;20630;-49
2022/12/28 03:08:30;;;;;;;0.80;0.80;;;3.40;99.90;;;;;;5031520;28;20207;-50
2022/12/28 03:11:03;;;;;;;1.00;1.00;;;3.40;99.90;;;;;;5024188;28;20231;-49
2022/12/28 03:13:43;;;;;;;1.73;0.90;;;3.40;99.90;;;;;;5011038;28;20261;-50
2022/12/28 03:16:15;;;;;;;1.13;0.80;;;3.30;99.90;;;;;;4996206;28;20268;-50
2022/12/28 03:32:45;;;;;;;0.77;0.70;;;3.40;99.90;;;;;;5019487;28;20213;-50
2022/12/28 03:35:15;;;;;;;1.47;0.70;;;3.50;99.90;;;;;;5019491;28;20286;-50
2022/12/28 03:37:50;;;;;;;0.80;0.80;;;3.50;99.90;;;;;;5017601;28;20231;-50
2022/12/28 03:40:29;;;;;;;1.70;0.80;;;3.50;99.90;;;;;;5018466;28;20531;-49
2022/12/28 03:45:51;;;;;;;0.67;0.67;;;3.40;99.90;;;;;;5026816;28;20223;-51
2022/12/28 03:48:19;;;;;;;0.50;0.50;;;3.40;99.90;;;;;;5034738;28;20196;-49
2022/12/28 03:50:48;;;;;;;0.50;0.50;;;3.40;99.90;;;;;;5033928;28;20270;-49
2022/12/28 03:53:17;;;;;;;1.67;0.90;;;3.40;99.90;;;;;;5018601;28;20228;-49
2022/12/28 03:55:45;;;;;;;0.30;0.23;;;3.40;99.90;;;;;;5026288;28;20636;-50
2022/12/28 03:58:12;;;;;;;0.30;0.30;;;3.30;99.90;;;;;;5014788;28;20225;-50
2022/12/28 04:00:39;;;;;;;0.40;0.40;;;3.30;99.90;;;;;;5014957;28;20276;-49
2022/12/28 04:03:06;;;;;;;0.40;0.40;;;3.40;99.90;;;;;;5021637;28;20276;-49
2022/12/28 04:05:33;;;;;;;0.77;0.50;;;3.30;99.90;;;;;;5022968;28;20205;-50
2022/12/28 04:08:00;;;;;;;0.40;0.40;;;3.30;99.90;;;;;;5029322;28;20292;-49
2022/12/28 04:10:27;;;;;;;1.27;0.73;;;3.20;99.90;;;;;;4995163;28;20689;-50
2022/12/28 04:12:56;;;;;;;0.50;0.40;;;3.20;99.90;;;;;;5015940;28;20221;-49
2022/12/28 04:15:23;;;;;;;1.57;0.40;;;3.20;99.90;;;;;;5030222;28;20204;-50
2022/12/28 04:17:50;;;;;;;0.40;0.40;;;3.20;99.90;;;;;;5033931;28;20227;-49
2022/12/28 04:20:17;;;;;;;0.77;0.50;;;3.20;99.90;;;;;;5034237;28;20202;-49
2022/12/28 04:22:44;;;;;;;1.30;0.70;;;3.10;99.90;;;;;;5029402;28;20200;-49
2022/12/28 04:25:11;;;;;;;2.00;0.70;;;3.10;99.90;;;;;;5022036;28;20201;-49
2022/12/28 04:27:38;;;;;;;0.40;0.40;;;3.00;99.90;;;;;;5014318;28;20208;-48
2022/12/28 04:30:08;;;;;;;0.77;0.60;;;3.00;99.90;;;;;;5014317;28;20631;-49
2022/12/28 04:32:35;;;;;;;0.40;0.40;;;3.00;99.90;;;;;;5020572;28;20208;-50
2022/12/28 04:35:02;;;;;;;0.97;0.50;;;3.10;99.90;;;;;;5026862;28;20300;-49
2022/12/28 04:37:29;;;;;;;0.33;0.33;;;3.00;99.90;;;;;;5033773;28;20228;-49
2022/12/28 04:39:56;;;;;;;0.50;0.50;;;3.10;99.90;;;;;;5033997;28;20622;-50
2022/12/28 04:42:24;;;;;;;1.40;0.60;;;3.10;99.90;;;;;;5025676;28;20205;-49
2022/12/28 04:44:51;;;;;;;2.03;0.40;;;3.10;99.90;;;;;;5025191;28;20224;-49
2022/12/28 04:47:19;;;;;;;2.93;0.60;;;3.10;99.90;;;;;;5027972;28;20232;-49
2022/12/28 04:49:46;;;;;;;0.63;0.50;;;3.10;99.90;;;;;;5022712;28;20201;-49
2022/12/28 04:52:13;;;;;;;0.57;0.50;;;3.10;99.90;;;;;;5016684;28;20294;-48
2022/12/28 04:54:40;;;;;;;1.03;0.63;;;3.00;99.90;;;;;;5011092;28;20236;-50
2022/12/28 04:57:07;;;;;;;0.57;0.53;;;3.00;99.90;;;;;;5024994;28;20663;-48
2022/12/28 04:59:34;;;;;;;0.57;0.50;;;3.00;99.90;;;;;;5019852;28;20299;-49
2022/12/28 05:02:01;;;;;;;0.40;0.40;;;3.10;99.90;;;;;;5008160;28;20201;-49
2022/12/28 05:04:29;;;;;;;1.30;0.40;;;3.10;99.90;;;;;;4995795;28;20225;-49
2022/12/28 05:06:58;;;;;;;2.70;0.50;;;3.10;99.90;;;;;;5013761;28;20216;-50
2022/12/28 05:09:24;;;;;;;0.97;0.50;;;3.10;99.90;;;;;;5013644;28;20256;-49
2022/12/28 05:11:51;;;;;;;1.40;0.70;;;3.10;99.90;;;;;;5010934;28;20211;-49
2022/12/28 05:14:18;;;;;;;0.60;0.60;;;3.10;99.90;;;;;;5021155;28;20267;-49
2022/12/28 05:16:45;;;;;;;1.53;0.67;;;3.10;99.90;;;;;;5014071;28;20682;-50
2022/12/28 05:19:12;;;;;;;0.60;0.60;;;3.10;99.90;;;;;;4993752;28;20237;-50
2022/12/28 05:21:41;;;;;;;0.80;0.77;;;3.00;99.90;;;;;;4994100;28;20264;-49
2022/12/28 05:24:08;;;;;;;0.60;0.60;;;3.00;99.90;;;;;;5021355;28;20213;-49
2022/12/28 05:26:35;;;;;;;1.00;0.90;;;2.90;99.90;;;;;;5029977;28;20202;-49
2022/12/28 05:29:02;;;;;;;1.53;1.43;;;3.00;99.90;;;;;;5032943;28;20252;-50
2022/12/28 05:31:29;;;;;;;1.63;1.53;;;2.90;99.90;;;;;;5032949;28;20250;-49
2022/12/28 05:33:56;;;;;;;0.70;0.70;;;2.90;99.90;;;;;;5011198;28;20707;-49
2022/12/28 05:36:25;;;;;;;1.47;1.07;;;2.80;99.90;;;;;;5032659;28;20203;-48
2022/12/28 05:38:55;;;;;;;1.27;1.17;;;2.80;99.90;;;;;;5032485;28;20270;-50
2022/12/28 05:41:23;;;;;;;1.90;1.80;;;2.80;99.90;;;;;;5033016;28;20631;-49
2022/12/28 05:43:51;;;;;;;0.60;0.60;;;2.70;99.90;;;;;;5027230;28;20721;-50
2022/12/28 05:46:20;;;;;;;0.60;0.57;;;2.70;99.90;;;;;;5032599;28;20200;-48
2022/12/28 05:48:48;;;;;;;1.57;0.80;;;2.60;99.90;;;;;;5035486;28;20237;-49
2022/12/28 05:51:19;;;;;;;1.10;0.73;;;2.70;99.90;;;;;;5032807;28;20622;-49
2022/12/28 05:53:46;;;;;;;0.80;0.80;;;2.70;99.90;;;;;;5027188;28;20266;-49
2022/12/28 05:56:19;;;;;;;0.70;0.70;;;2.60;99.90;;;;;;5025669;28;20200;-49
2022/12/28 05:58:51;;;;;;;0.97;0.97;;;2.50;99.90;;;;;;5024274;28;20245;-48
2022/12/28 06:01:20;;;;;;;0.73;0.70;;;2.50;99.90;;;;;;5024487;28;20270;-50
2022/12/28 06:03:51;;;;;;;1.00;1.00;;;2.50;99.90;;;;;;5024886;28;20720;-50
2022/12/28 06:06:20;;;;;;;2.20;1.10;;;2.50;99.90;;;;;;5024748;28;20257;-48
2022/12/28 06:08:48;;;;;;;2.47;1.03;;;2.50;99.90;;;;;;5031765;28;20730;-49
2022/12/28 06:11:19;;;;;;;1.00;1.00;;;2.60;99.90;;;;;;5018809;28;20267;-50
2022/12/28 06:13:46;;;;;;;0.93;0.50;;;2.60;99.90;;;;;;5023904;28;20228;-48
2022/12/28 06:16:16;;;;;;;0.70;0.70;;;2.70;99.90;;;;;;5036750;28;20227;-48
2022/12/28 06:18:43;;;;;;;0.90;0.90;;;2.80;99.90;;;;;;5051989;28;20214;-49
2022/12/28 06:21:12;;;;;;;2.10;1.00;;;2.80;99.90;;;;;;5051816;28;20210;-48
2022/12/28 06:23:40;;;;;;;0.83;0.83;;;2.80;99.90;;;;;;5035886;28;20231;-49
2022/12/28 06:26:08;;;;;;;0.97;0.83;;;2.70;99.90;;;;;;5031120;28;20643;-50
2022/12/28 06:28:38;;;;;;;0.67;0.63;;;2.70;99.90;;;;;;5036771;28;20200;-48
2022/12/28 06:31:07;;;;;;;0.70;0.60;;;2.70;99.90;;;;;;5051856;28;20678;-48
2022/12/28 06:33:34;;;;;;;1.13;0.83;;;2.70;99.90;;;;;;5041746;23;20252;-51
2022/12/28 06:36:02;;;;;;;1.93;0.90;;;2.80;99.90;;;;;;4992051;28;20202;-51
2022/12/28 06:38:31;;;;;;;0.80;0.80;;;2.80;99.90;;;;;;4991568;28;20251;-51
2022/12/28 06:41:02;;;;;;;0.87;0.60;;;2.80;99.90;;;;;;4990816;28;20238;-50
2022/12/28 06:43:31;;;;;;;0.70;0.70;;;2.80;99.90;;;;;;4980615;28;20233;-51
2022/12/28 06:46:00;;;;;;;1.33;0.80;;;2.70;99.90;;;;;;4973657;28;20260;-52
2022/12/28 06:48:28;;;;;;;1.53;0.97;;;2.70;99.90;;;;;;4974965;28;20305;-51
2022/12/28 06:50:57;;;;;;;1.03;1.00;;;2.60;99.90;;;;;;4983099;28;20202;-51
2022/12/28 06:53:25;;;;;;;0.63;0.63;;;2.50;99.90;;;;;;4993159;28;20299;-50
2022/12/28 06:55:54;;;;;;;2.10;1.47;;;2.50;99.90;;;;;;4993392;28;20227;-51
2022/12/28 06:58:25;;;;;;;2.13;0.93;;;2.50;99.90;;;;;;4991324;28;20229;-51
2022/12/28 07:00:52;;;;;;;0.87;0.87;;;2.50;99.90;;;;;;4995462;28;20689;-51
2022/12/28 07:03:21;;;;;;;0.80;0.80;;;2.60;99.90;;;;;;4988231;28;20252;-51
2022/12/28 07:05:49;;;;;;;1.30;1.27;;;2.60;99.90;;;;;;4995596;28;20224;-50
2022/12/28 07:08:16;;;;;;;1.60;1.50;;;2.60;99.90;;;;;;4992819;28;20216;-51
2022/12/28 07:10:43;;;;;;;0.77;0.77;;;2.60;99.90;;;;;;4990115;28;20255;-51
2022/12/28 07:13:10;;;;;;;1.17;0.70;;;2.60;99.90;;;;;;4989289;28;20709;-51
2022/12/28 07:15:38;;;;;;;1.90;1.00;;;2.60;99.90;;;;;;4985822;28;20232;-51
2022/12/28 07:18:05;;;;;;;1.90;0.97;;;2.60;99.90;;;;;;4987334;28;20211;-51
2022/12/28 07:20:33;;;;;;;1.80;1.30;;;2.60;99.90;;;;;;4987492;28;20257;-51
2022/12/28 07:23:00;;;;;;;1.50;1.37;;;2.50;99.90;;;;;;4990997;28;20206;-51
2022/12/28 07:25:27;;;;;;;2.37;2.17;;;2.50;99.90;;;;;;4995203;28;20205;-51
2022/12/28 07:27:54;;;;;;;2.87;2.60;;;2.50;99.90;;;;;;4995379;28;20201;-51
2022/12/28 07:30:21;;;;;;;2.10;1.90;;;2.50;99.90;;;;;;4989372;28;20199;-51
2022/12/28 07:32:48;;;;;;;3.10;2.80;;;2.50;99.90;;;;;;4988281;28;20618;-51
2022/12/28 07:35:15;;;;;;;2.13;1.93;;;2.40;99.90;;;;;;4994984;28;20209;-51
2022/12/28 07:37:44;;;;;;;1.87;1.77;;;2.50;99.90;;;;;;4994676;28;20215;-51
2022/12/28 07:40:11;;;;;;;2.80;0.87;;;2.60;99.90;;;;;;4995238;28;20324;-51
2022/12/28 07:42:38;;;;;;;1.67;0.63;;;2.70;99.90;;;;;;4983757;28;20206;-51
2022/12/28 07:45:09;;;;;;;2.70;1.17;;;2.70;99.90;;;;;;4977343;28;20222;-51
2022/12/28 07:47:36;;;;;;;2.60;1.43;;;2.70;99.90;;;;;;4976717;28;20696;-51
2022/12/28 07:50:04;;;;;;;1.63;0.90;;;2.70;99.90;;;;;;4966585;28;20720;-51
2022/12/28 07:52:31;;;;;;;2.10;1.40;;;2.70;99.90;;;;;;4985129;28;20745;-50
2022/12/28 07:54:59;;;;;;;1.57;1.30;;;2.70;99.90;;;;;;4979730;28;20648;-52
2022/12/28 07:57:26;;;;;;;1.60;0.90;;;2.80;99.90;;;;;;4994862;28;20209;-51
2022/12/28 07:59:53;;;;;;;0.60;0.60;;;2.80;99.90;;;;;;4977990;28;20319;-51
2022/12/28 08:02:20;;;;;;;1.17;1.10;;;2.90;99.90;;;;;;4986289;28;20345;-52
2022/12/28 08:04:47;;;;;;;1.10;0.70;;;2.80;99.90;;;;;;4994323;28;20276;-51
2022/12/28 08:07:14;;;;;;;2.27;1.30;;;2.90;99.90;;;;;;4969578;28;20214;-51
2022/12/28 08:09:41;;;;;;;1.07;0.77;;;3.00;99.90;;;;;;4956693;28;20246;-52
2022/12/28 08:12:09;;;;;;;1.00;0.90;;;2.90;99.90;;;;;;4969487;28;20260;-51
2022/12/28 08:14:37;;;;;;;1.90;0.97;;;2.90;99.90;;;;;;4967912;28;20236;-52
2022/12/28 08:17:04;;;;;;;0.90;0.83;;;2.90;99.90;;;;;;4968658;28;20213;-52
2022/12/28 08:19:31;;;;;;;1.00;1.00;;;2.90;99.90;;;;;;4977001;28;20257;-51
2022/12/28 08:22:00;;;;;;;0.87;0.87;;;2.90;99.90;;;;;;4962036;28;20353;-51
2022/12/28 08:24:27;;;;;;;1.43;1.33;;;3.00;99.90;;;;;;4976488;28;20709;-50
2022/12/28 08:26:57;;;;;;;1.03;0.77;;;3.20;99.90;;;;;;4965598;28;20206;-51
2022/12/28 08:29:26;;;;;;;1.60;1.00;;;3.40;99.90;;;;;;4958462;28;20240;-52
2022/12/28 08:31:53;;;;;;;3.90;0.80;;;3.60;99.90;;;;;;4966170;28;20210;-52
2022/12/28 08:34:25;;;;;;;1.00;1.00;;;3.80;99.90;;;;;;4979037;28;20297;-51
2022/12/28 08:36:59;;;;;;;0.50;0.50;;;4.10;99.90;;;;;;4988204;28;20222;-51
2022/12/28 08:39:26;;;;;;;1.93;0.70;;;4.10;99.90;;;;;;4980365;28;20720;-51
2022/12/28 08:41:53;;;;;;;0.80;0.80;;;4.20;99.90;;;;;;4989946;28;20769;-51
2022/12/28 08:44:20;;;;;;;0.87;0.80;;;4.40;99.90;;;;;;4982049;28;20259;-51
2022/12/28 08:46:48;;;;;;;1.23;0.80;;;4.70;99.90;;;;;;4980632;28;20263;-52
2022/12/28 08:49:15;;;;;;;1.07;0.80;;;5.00;99.90;;;;;;4982552;28;20211;-51
2022/12/28 08:51:42;;;;;;;1.30;0.60;;;5.30;99.90;;;;;;4991145;28;20250;-51
2022/12/28 08:54:11;;;;;;;0.63;0.63;;;5.60;99.90;;;;;;4984756;28;20264;-52
2022/12/28 08:56:39;;;;;;;0.60;0.60;;;6.10;99.90;;;;;;4977929;28;20250;-50
2022/12/28 08:59:06;;;;;;;0.93;0.53;;;6.40;99.90;;;;;;4980631;28;20743;-51
2022/12/28 09:01:35;;;;;;;0.70;0.60;;;6.40;99.90;;;;;;4986272;28;20213;-51
2022/12/28 09:04:04;;;;;;;0.77;0.53;;;6.30;99.90;;;;;;4984083;28;20284;-52
2022/12/28 09:06:34;;;;;;;0.60;0.60;;;6.10;99.90;;;;;;4984250;28;20198;-52
2022/12/28 09:09:03;;;;;;;0.83;0.83;;;6.00;99.90;;;;;;4988271;28;20209;-52
2022/12/28 09:11:30;;;;;;;0.60;0.60;;;5.80;99.90;;;;;;4989091;28;20209;-51
2022/12/28 09:13:57;;;;;;;0.67;0.67;;;5.60;99.90;;;;;;4976935;28;20229;-51
2022/12/28 09:16:27;;;;;;;2.70;0.60;;;5.40;99.90;;;;;;4986440;28;20213;-52
2022/12/28 09:18:55;;;;;;;2.80;0.70;;;5.40;99.90;;;;;;4977308;28;20209;-51
2022/12/28 09:21:25;;;;;;;0.93;0.60;;;5.50;99.90;;;;;;4984002;28;20254;-52
2022/12/28 09:23:52;;;;;;;2.60;0.70;;;5.50;99.90;;;;;;4983330;28;20221;-52
2022/12/28 09:26:22;;;;;;;0.67;0.60;;;5.60;99.90;;;;;;4981794;28;20280;-52
2022/12/28 09:28:50;;;;;;;2.43;0.63;;;5.70;99.90;;;;;;4979908;28;20281;-51
2022/12/28 09:31:18;;;;;;;0.80;0.80;;;5.50;99.90;;;;;;4977416;28;20662;-51
2022/12/28 09:34:01;;;;;;;1.53;0.50;;;5.40;99.90;;;;;;4979574;28;20226;-51
2022/12/28 09:36:31;;;;;;;0.60;0.50;;;5.40;99.90;;;;;;4978247;28;20206;-51
2022/12/28 09:39:00;;;;;;;0.60;0.60;;;5.40;99.90;;;;;;4982801;28;20204;-52
2022/12/28 09:41:30;;;;;;;0.63;0.63;;;5.40;99.90;;;;;;4977189;28;20209;-51
2022/12/28 09:44:09;;;;;;;0.50;0.50;;;5.40;99.90;;;;;;4971616;28;20285;-51
2022/12/28 09:46:39;;;;;;;0.70;0.70;;;5.50;99.90;;;;;;4986618;28;20196;-52
2022/12/28 09:49:14;;;;;;;0.40;0.40;;;5.50;99.90;;;;;;4986060;28;20204;-52
2022/12/28 09:51:51;;;;;;;0.40;0.40;;;5.50;99.90;;;;;;4981977;28;20264;-52
2022/12/28 09:54:18;;;;;;;1.23;0.67;;;5.50;99.90;;;;;;4985109;28;20228;-51
2022/12/28 09:56:47;;;;;;;0.53;0.47;;;5.60;99.90;;;;;;4985355;28;20265;-51
2022/12/28 09:59:20;;;;;;;0.40;0.30;;;5.70;99.90;;;;;;4984352;28;20272;-52
2022/12/28 10:01:53;;;;;;;3.10;0.50;;;5.70;99.90;;;;;;4990074;28;20210;-52
2022/12/28 10:04:20;;;;;;;0.37;0.37;;;5.70;99.90;;;;;;4983462;28;20231;-51
2022/12/28 10:06:48;;;;;;;0.40;0.40;;;5.80;99.90;;;;;;4980206;28;20588;-52
2022/12/28 10:09:21;;;;;;;0.47;0.30;;;6.00;99.90;;;;;;4976165;28;20740;-51
2022/12/28 10:11:48;;;;;;;0.77;0.50;;;6.10;99.90;;;;;;4982052;28;20204;-51
2022/12/28 10:14:19;;;;;;;0.20;0.20;;;6.30;99.90;;;;;;4983956;28;20222;-52
2022/12/28 10:16:47;;;;;;;1.13;0.73;;;6.40;99.90;;;;;;4981425;28;20774;-51
2022/12/28 10:19:18;;;;;;;0.87;0.30;;;6.50;99.90;;;;;;4989142;28;20284;-51
2022/12/28 10:21:52;;;;;;;0.30;0.30;;;6.70;99.90;;;;;;4985172;28;20207;-52
2022/12/28 10:24:19;;;;;;;0.70;0.70;;;6.70;99.90;;;;;;4985623;28;20275;-51
2022/12/28 10:26:47;;;;;;;0.67;0.40;;;6.80;99.90;;;;;;4984059;28;20207;-51
2022/12/28 10:29:19;;;;;;;1.20;0.30;;;6.80;99.90;;;;;;4988612;28;20209;-52
2022/12/28 10:31:59;;;;;;;0.97;0.40;;;7.00;99.90;;;;;;4981903;28;20207;-51
2022/12/28 10:34:27;;;;;;;0.90;0.40;;;7.20;99.90;;;;;;4978050;28;20227;-51
2022/12/28 10:37:04;;;;;;;2.00;0.30;;;7.60;99.90;;;;;;4980480;28;20298;-51
2022/12/28 10:39:33;;;;;;;0.30;0.30;;;7.90;99.90;;;;;;4973584;28;20315;-52
2022/12/28 10:42:02;;;;;;;0.50;0.50;;;8.20;99.90;;;;;;4976480;28;20637;-52
2022/12/28 10:44:31;;;;;;;1.47;1.13;;;8.40;99.90;;;;;;4977432;28;20224;-50
2022/12/28 10:47:01;;;;;;;0.47;0.47;;;8.50;99.90;;;;;;4982107;28;20649;-51
2022/12/28 10:49:33;;;;;;;1.20;0.73;;;8.60;99.90;;;;;;4981772;28;20220;-52
2022/12/28 10:52:13;;;;;;;2.30;0.70;;;8.50;99.90;;;;;;4978240;28;20728;-51
2022/12/28 10:54:40;;;;;;;0.50;0.40;;;8.30;99.90;;;;;;4983531;28;20318;-52
2022/12/28 10:57:17;;;;;;;0.40;0.40;;;8.20;99.90;;;;;;4987681;28;20283;-52
2022/12/28 10:59:45;;;;;;;0.50;0.50;;;8.10;99.90;;;;;;4981348;28;20266;-51
2022/12/28 11:02:28;;;;;;;1.90;0.47;;;7.80;99.90;;;;;;4989151;28;20213;-51
2022/12/28 11:04:57;;;;;;;1.13;0.53;;;7.70;99.90;;;;;;4986999;28;20774;-51
2022/12/28 11:07:31;;;;;;;1.20;0.30;;;7.80;99.90;;;;;;4991211;28;20210;-52
2022/12/28 11:10:24;;;;;;;0.30;0.30;;;7.80;99.90;;;;;;4983367;28;20225;-52
2022/12/28 11:12:52;;;;;;;0.93;0.40;;;7.80;99.90;;;;;;4988310;28;20676;-51
2022/12/28 11:15:22;;;;;;;0.80;0.80;;;7.80;99.90;;;;;;4988724;28;20260;-51
2022/12/28 11:17:56;;;;;;;0.93;0.60;;;7.80;99.90;;;;;;4983556;28;20210;-51
2022/12/28 11:20:29;;;;;;;2.77;0.73;;;7.80;99.90;;;;;;4983855;28;20223;-51
2022/12/28 11:22:58;;;;;;;0.50;0.50;;;7.90;99.90;;;;;;4983835;28;20213;-52
2022/12/28 11:25:30;;;;;;;0.70;0.70;;;8.00;99.90;;;;;;4985598;28;20214;-51
2022/12/28 11:27:58;;;;;;;0.50;0.50;;;8.10;99.90;;;;;;4975667;28;20500;-51
2022/12/28 11:30:25;;;;;;;0.63;0.43;;;8.20;99.90;;;;;;4987144;28;20267;-52
2022/12/28 11:32:55;;;;;;;0.63;0.30;;;8.30;99.90;;;;;;4982566;28;20693;-53
2022/12/28 11:35:24;;;;;;;1.70;0.70;;;8.30;99.90;;;;;;4980068;28;20214;-52
2022/12/28 11:37:53;;;;;;;2.53;1.80;;;8.40;99.90;;;;;;4985622;28;20210;-51
2022/12/28 11:40:47;;;;;;;2.33;1.53;;;8.30;99.90;;;;;;4989678;28;20771;-52
2022/12/28 11:43:38;;;;;;;3.33;2.00;;;8.20;99.90;;;;;;4988672;28;20308;-51
2022/12/28 11:46:07;;;;;;;4.47;1.63;;;8.40;99.90;;;;;;4977618;28;20650;-51
2022/12/28 11:48:50;;;;;;;1.60;1.50;;;8.50;99.90;;;;;;4986579;28;20209;-52
2022/12/28 11:51:19;;;;;;;2.93;1.30;;;8.50;99.90;;;;;;4983448;28;20257;-52
2022/12/28 11:53:51;;;;;;;1.43;1.20;;;8.60;99.90;;;;;;4981806;28;20288;-52
2022/12/28 11:56:21;;;;;;;2.63;1.00;;;8.70;99.90;;;;;;4982896;28;20210;-52
2022/12/28 11:59:03;;;;;;;3.17;1.63;;;8.70;99.90;;;;;;4992803;28;20204;-52
2022/12/28 12:01:45;;;;;;;1.37;1.27;;;8.80;99.90;;;;;;4987175;28;20221;-53
2022/12/28 12:04:44;;;;;;;0.93;0.93;;;8.70;99.90;;;;;;4976328;28;20222;-53
2022/12/28 12:07:20;;;;;;;1.00;0.97;;;8.70;99.90;;;;;;4987543;28;20200;-52
2022/12/28 12:09:49;;;;;;;1.10;1.00;;;8.70;99.90;;;;;;4980434;28;20292;-53
2022/12/28 12:12:46;;;;;;;1.30;1.30;;;8.60;99.90;;;;;;4986287;28;20628;-53
2022/12/28 12:15:17;;;;;;;0.67;0.67;;;8.50;99.90;;;;;;4988563;28;20284;-53
2022/12/28 12:17:47;;;;;;;1.47;0.70;;;8.40;99.90;;;;;;4992309;28;20256;-52
2022/12/28 12:20:37;;;;;;;0.90;0.60;;;8.40;99.90;;;;;;4990978;28;20226;-52
2022/12/28 12:23:08;;;;;;;0.90;0.67;;;8.40;99.90;;;;;;4987738;28;20253;-51
2022/12/28 12:25:39;;;;;;;2.67;1.37;;;8.40;99.90;;;;;;4986069;28;20206;-52
2022/12/28 12:28:14;;;;;;;2.23;1.00;;;8.30;99.90;;;;;;4983826;28;20197;-52
2022/12/28 12:30:43;;;;;;;0.40;0.40;;;8.40;99.90;;;;;;4994020;28;20625;-51
2022/12/28 12:33:15;;;;;;;0.40;0.40;;;8.40;99.90;;;;;;4986760;28;20237;-51
2022/12/28 12:36:00;;;;;;;0.80;0.60;;;8.40;99.90;;;;;;5002521;23;20669;-48
2022/12/28 12:38:40;;;;;;;0.40;0.40;;;8.50;99.90;;;;;;4983531;28;20210;-48
2022/12/28 12:41:24;;;;;;;3.20;0.67;;;8.50;99.90;;;;;;4987360;28;20280;-49
2022/12/28 12:44:09;;;;;;;0.50;0.50;;;8.50;99.90;;;;;;4984435;28;20206;-49
2022/12/28 12:47:06;;;;;;;0.73;0.40;;;8.40;99.90;;;;;;4976042;28;20613;-49
2022/12/28 12:49:48;;;;;;;0.60;0.50;;;8.50;99.90;;;;;;4974822;28;20190;-49
2022/12/28 12:52:26;;;;;;;1.90;0.50;;;8.40;99.90;;;;;;4974836;28;20202;-48
2022/12/28 12:55:12;;;;;;;1.07;0.60;;;8.40;99.90;;;;;;4988844;28;20671;-48
2022/12/28 12:57:50;;;;;;;0.33;0.33;;;8.40;99.90;;;;;;4989438;28;20222;-47
2022/12/28 13:00:21;;;;;;;0.80;0.80;;;8.50;99.90;;;;;;4981677;28;20692;-48
2022/12/28 13:03:16;;;;;;;0.50;0.50;;;8.60;99.90;;;;;;4987345;28;20201;-48
2022/12/28 13:05:53;;;;;;;3.00;0.80;;;8.60;99.90;;;;;;4991947;28;20249;-48
2022/12/28 13:08:27;;;;;;;0.60;0.60;;;8.60;99.90;;;;;;4985917;28;20255;-48
2022/12/28 13:10:55;;;;;;;0.80;0.80;;;8.60;99.90;;;;;;4992186;28;20201;-48
2022/12/28 13:13:30;;;;;;;0.60;0.60;;;8.60;99.90;;;;;;4987262;28;20208;-48
2022/12/28 13:16:03;;;;;;;0.90;0.90;;;8.60;99.90;;;;;;4986302;28;20237;-49
2022/12/28 13:18:31;;;;;;;1.00;0.60;;;8.60;99.90;;;;;;4986390;28;20266;-48
2022/12/28 13:21:00;;;;;;;0.40;0.40;;;8.60;99.90;;;;;;4993762;28;20272;-48
2022/12/28 13:23:27;;;;;;;0.70;0.70;;;8.60;99.90;;;;;;4990996;28;20205;-49
2022/12/28 13:25:57;;;;;;;0.97;0.80;;;8.70;99.90;;;;;;4992131;28;20773;-48
2022/12/28 13:28:29;;;;;;;1.67;0.70;;;8.60;99.90;;;;;;4993009;28;20213;-49
2022/12/28 13:31:08;;;;;;;1.00;0.90;;;8.60;99.90;;;;;;4975443;28;20291;-48
2022/12/28 13:33:35;;;;;;;0.60;0.60;;;8.60;99.90;;;;;;4973861;28;20214;-48
2022/12/28 13:36:19;;;;;;;0.50;0.50;;;8.60;99.90;;;;;;4985781;28;20237;-49
2022/12/28 13:38:47;;;;;;;0.67;0.67;;;8.60;99.90;;;;;;4990308;28;20205;-48
2022/12/28 13:41:22;;;;;;;0.63;0.63;;;8.60;99.90;;;;;;4984231;28;20227;-49
2022/12/28 13:44:16;;;;;;;0.40;0.40;;;8.50;99.90;;;;;;4973612;28;20678;-47
2022/12/28 13:46:49;;;;;;;1.17;0.73;;;8.40;99.90;;;;;;4988977;28;20578;-48